EGMD - Lydd Airport
Distance from station: E 5mi, 14km
Updated: 10/17/2017 11:50pm
Partly Cloudy
Partly Cloudy
 Wind from E
Wind: E 16 mph , 26 km/h
Temperature: 59°F , 15°C
Dew Point: 57°F , 14°C
Humidity: 94%
Barometer: 29.85 inHg , 1011 hPa
Clouds: Partly Cloudy
Visibility: 6 miles , 10 km
Cloud details: Few Clouds 800 ft
Partly Cloudy 1200 ft
2017/10/18 06:50 EGMD 180650Z AUTO 08014KT 9999 FEW008/// SCT012/// 15/14 Q1011